createdAt,value
2023-02-12T00:01:50.295Z,97855.66
2023-02-12T00:04:19.296Z,97855.66
2023-02-12T00:06:48.062Z,97858.34
2023-02-12T00:09:20.206Z,97852.16
2023-02-12T00:11:50.416Z,97856.69
2023-02-12T00:14:17.318Z,97839.03
2023-02-12T00:16:46.425Z,97845.22
2023-02-12T00:19:13.140Z,97849.72
2023-02-12T00:21:42.438Z,97844.38
2023-02-12T00:24:11.391Z,97853.41
2023-02-12T00:26:45.922Z,97855.28
2023-02-12T00:29:20.085Z,97853.41
2023-02-12T00:31:51.758Z,97844.59
2023-02-12T00:34:18.558Z,97841.09
2023-02-12T00:36:47.471Z,97850.97
2023-02-12T00:39:17.167Z,97852.84
2023-02-12T00:41:51.306Z,97846.66
2023-02-12T00:44:23.006Z,97845.63
2023-02-12T00:46:52.698Z,97847.50
2023-02-12T00:49:22.990Z,97841.31
2023-02-12T00:51:51.989Z,97845.84
2023-02-12T00:54:18.911Z,97859.19
2023-02-12T00:56:48.078Z,97866.41
2023-02-12T00:59:19.419Z,97860.22
2023-02-12T01:01:46.090Z,97852.22
2023-02-12T01:04:19.859Z,97848.72
2023-02-12T01:06:49.783Z,97850.56
2023-02-12T01:09:22.082Z,97857.78
2023-02-12T01:11:55.838Z,97854.06
2023-02-12T01:14:27.854Z,97858.56
2023-02-12T01:17:00.762Z,97855.13
2023-02-12T01:19:35.193Z,97851.63
2023-02-12T01:22:04.565Z,97853.47
2023-02-12T01:24:35.997Z,97853.47
2023-02-12T01:27:02.786Z,97853.47
2023-02-12T01:29:29.487Z,97854.50
2023-02-12T01:32:01.106Z,97862.50
2023-02-12T01:34:27.895Z,97856.13
2023-02-12T01:36:59.230Z,97862.50
2023-02-12T01:39:28.132Z,97860.81
2023-02-12T01:41:55.624Z,97864.31
2023-02-12T01:44:25.641Z,97864.31
2023-02-12T01:46:56.792Z,97865.38
2023-02-12T01:49:52.625Z,97858.16
2023-02-12T01:52:34.300Z,97861.88
2023-02-12T01:55:07.561Z,97858.16
2023-02-12T01:57:40.569Z,97853.88
2023-02-12T02:00:14.306Z,97855.72
2023-02-12T02:02:44.935Z,97855.72
2023-02-12T02:05:21.028Z,97851.41
2023-02-12T02:07:50.287Z,97855.94
2023-02-12T02:10:17.394Z,97856.75
2023-02-12T02:13:02.528Z,97855.94
2023-02-12T02:15:31.960Z,97850.59
2023-02-12T02:18:20.412Z,97852.47
2023-02-12T02:21:25.321Z,97845.47
2023-02-12T02:24:10.377Z,97844.44
2023-02-12T02:27:07.733Z,97841.97
2023-02-12T02:30:09.136Z,97824.94
2023-02-12T02:32:44.962Z,97833.97
2023-02-12T02:35:15.207Z,97830.50
2023-02-12T02:37:53.663Z,97828.84
2023-02-12T02:40:37.599Z,97832.34
2023-02-12T02:43:17.748Z,97833.16
2023-02-12T02:45:57.169Z,97833.16
2023-02-12T02:48:40.108Z,97830.72
2023-02-12T02:51:15.950Z,97834.19
2023-02-12T02:53:52.573Z,97829.69
2023-02-12T02:56:27.163Z,97830.50
2023-02-12T02:59:12.226Z,97836.63
2023-02-12T03:01:51.101Z,97843.84
2023-02-12T03:04:32.558Z,97837.47
2023-02-12T03:07:05.103Z,97846.50
2023-02-12T03:09:45.951Z,97845.69
2023-02-12T03:12:24.787Z,97848.34
2023-02-12T03:15:10.151Z,97836.84
2023-02-12T03:17:42.801Z,97842.19
2023-02-12T03:20:15.169Z,97845.91
2023-02-12T03:22:51.378Z,97846.72
2023-02-12T03:25:40.979Z,97848.56
2023-02-12T03:28:20.547Z,97846.91
2023-02-12T03:31:09.593Z,97850.41
2023-02-12T03:33:48.756Z,97864.59
2023-02-12T03:36:21.042Z,97855.75
2023-02-12T03:38:57.188Z,97856.81
2023-02-12T03:41:47.572Z,97853.31
2023-02-12T03:44:28.961Z,97857.81
2023-02-12T03:47:01.572Z,97853.31
2023-02-12T03:49:43.035Z,97854.13
2023-02-12T03:52:12.105Z,97852.25
2023-02-12T03:54:41.046Z,97855.97
2023-02-12T03:57:16.737Z,97858.84
2023-02-12T03:59:46.686Z,97868.50
2023-02-12T04:02:18.849Z,97859.69
2023-02-12T04:04:47.115Z,97859.69
2023-02-12T04:07:19.688Z,97869.53
2023-02-12T04:09:48.719Z,97867.91
2023-02-12T04:12:24.134Z,97880.22
2023-02-12T04:15:32.189Z,97876.72
2023-02-12T04:18:08.732Z,97874.25
2023-02-12T04:20:38.666Z,97875.91
2023-02-12T04:23:27.144Z,97874.25
2023-02-12T04:26:03.088Z,97879.59
2023-02-12T04:28:53.950Z,97883.09
2023-02-12T04:31:24.185Z,97882.25
2023-02-12T04:34:06.502Z,97880.44
2023-02-12T04:36:39.067Z,97885.75
2023-02-12T04:39:15.230Z,97884.09
2023-02-12T04:41:44.162Z,97894.78
2023-02-12T04:44:27.911Z,97896.66
2023-02-12T04:46:56.906Z,97902.78
2023-02-12T04:49:24.330Z,97903.84
2023-02-12T04:51:54.426Z,97894.19
2023-02-12T04:54:24.269Z,97898.50
2023-02-12T04:56:51.865Z,97896.88
2023-02-12T04:59:18.613Z,97899.31
2023-02-12T05:01:45.728Z,97899.31
2023-02-12T05:04:19.034Z,97896.44
2023-02-12T05:06:51.422Z,97896.22
2023-02-12T05:09:23.559Z,97902.38
2023-02-12T05:11:50.295Z,97908.53
2023-02-12T05:14:19.346Z,97903.78
2023-02-12T05:16:50.943Z,97908.69
2023-02-12T05:19:24.817Z,97906.84
2023-02-12T05:21:51.725Z,97910.97
2023-02-12T05:24:20.725Z,97913.41
2023-02-12T05:26:54.552Z,97912.38
2023-02-12T05:29:21.386Z,97917.53
2023-02-12T05:31:50.481Z,97919.19
2023-02-12T05:34:20.311Z,97925.31
2023-02-12T05:36:51.783Z,97927.78
2023-02-12T05:39:18.560Z,97927.78
2023-02-12T05:41:45.219Z,97928.59
2023-02-12T05:44:16.600Z,97922.25
2023-02-12T05:46:48.483Z,97924.91
2023-02-12T05:49:17.568Z,97922.25
2023-02-12T05:51:44.347Z,97924.91
2023-02-12T05:54:13.593Z,97924.91
2023-02-12T05:56:46.794Z,97924.91
2023-02-12T05:59:17.428Z,97932.91
2023-02-12T06:01:47.974Z,97933.72
2023-02-12T06:04:23.815Z,97930.25
2023-02-12T06:06:55.835Z,97922.25
2023-02-12T06:09:23.405Z,97930.25
2023-02-12T06:11:50.149Z,97931.03
2023-02-12T06:14:22.971Z,97936.38
2023-02-12T06:16:55.066Z,97930.25
2023-02-12T06:19:27.688Z,97933.50
2023-02-12T06:21:56.824Z,97947.66
2023-02-12T06:24:23.473Z,97943.16
2023-02-12T06:26:57.539Z,97943.16
2023-02-12T06:29:24.254Z,97941.31
2023-02-12T06:31:51.151Z,97949.09
2023-02-12T06:34:24.928Z,97946.66
2023-02-12T06:36:53.845Z,97945.59
2023-02-12T06:39:20.574Z,97952.00
2023-02-12T06:41:53.118Z,97954.44
2023-02-12T06:44:19.929Z,97950.94
2023-02-12T06:46:48.935Z,97959.78
2023-02-12T06:49:18.786Z,97958.97
2023-02-12T06:51:45.561Z,97956.50
2023-02-12T06:54:19.847Z,97957.34
2023-02-12T06:56:49.161Z,97958.34
2023-02-12T06:59:17.256Z,97954.66
2023-02-12T07:01:44.116Z,97954.66
2023-02-12T07:04:15.729Z,97959.78
2023-02-12T07:06:42.521Z,97957.91
2023-02-12T07:09:09.248Z,97958.75
2023-02-12T07:11:40.726Z,97958.53
2023-02-12T07:14:16.612Z,97953.19
2023-02-12T07:16:45.671Z,97962.03
2023-02-12T07:19:14.998Z,97960.97
2023-02-12T07:21:41.841Z,97949.50
2023-02-12T07:24:13.327Z,97945.78
2023-02-12T07:26:41.354Z,97961.81
2023-02-12T07:29:15.433Z,97958.09
2023-02-12T07:31:47.145Z,97952.97
2023-02-12T07:34:18.932Z,97951.94
2023-02-12T07:36:45.625Z,97953.78
2023-02-12T07:39:15.099Z,97951.13
2023-02-12T07:41:44.229Z,97952.16
2023-02-12T07:44:13.692Z,97956.47
2023-02-12T07:46:48.675Z,97950.28
2023-02-12T07:49:21.735Z,97951.34
2023-02-12T07:51:50.788Z,97956.69
2023-02-12T07:54:24.909Z,97951.34
2023-02-12T07:56:56.603Z,97953.19
2023-02-12T07:59:31.003Z,97952.38
2023-02-12T08:02:01.087Z,97956.06
2023-02-12T08:04:30.446Z,97964.69
2023-02-12T08:06:59.718Z,97958.53
2023-02-12T08:09:31.028Z,97953.19
2023-02-12T08:11:59.954Z,97949.09
2023-02-12T08:14:31.692Z,97958.75
2023-02-12T08:17:03.796Z,97953.41
2023-02-12T08:19:35.558Z,97950.13
2023-02-12T08:22:09.600Z,97961.63
2023-02-12T08:24:36.275Z,97962.69
2023-02-12T08:27:04.977Z,97954.44
2023-02-12T08:29:34.635Z,97958.13
2023-02-12T08:32:03.335Z,97942.94
2023-02-12T08:34:35.295Z,97947.66
2023-02-12T08:37:06.134Z,97945.00
2023-02-12T08:39:38.919Z,97953.00
2023-02-12T08:42:05.894Z,97947.66
2023-02-12T08:44:32.795Z,97951.16
2023-02-12T08:46:59.492Z,97951.16
2023-02-12T08:49:32.120Z,97946.03
2023-02-12T08:52:02.670Z,97946.84
2023-02-12T08:54:32.811Z,97949.50
2023-02-12T08:57:01.743Z,97950.56
2023-02-12T08:59:30.974Z,97947.88
2023-02-12T09:01:57.768Z,97942.53
2023-02-12T09:04:32.579Z,97947.06
2023-02-12T09:06:59.384Z,97947.06
2023-02-12T09:09:28.488Z,97945.44
2023-02-12T09:11:58.497Z,97951.81
2023-02-12T09:14:29.679Z,97949.16
2023-02-12T09:16:58.890Z,97945.44
2023-02-12T09:19:32.350Z,97953.66
2023-02-12T09:22:03.902Z,97949.16
2023-02-12T09:24:35.379Z,97950.16
2023-02-12T09:27:04.391Z,97946.66
2023-02-12T09:29:36.018Z,97952.84
2023-02-12T09:32:07.454Z,97955.50
2023-02-12T09:34:39.188Z,97954.66
2023-02-12T09:37:08.458Z,97950.38
2023-02-12T09:39:37.470Z,97953.88
2023-02-12T09:42:07.182Z,97958.38
2023-02-12T09:44:38.774Z,97954.88
2023-02-12T09:47:17.378Z,97944.22
2023-02-12T09:49:48.409Z,97960.22
2023-02-12T09:52:19.260Z,97959.44
2023-02-12T09:54:51.364Z,97954.88
2023-02-12T09:57:38.175Z,97961.88
2023-02-12T10:00:11.219Z,97958.38
2023-02-12T10:02:39.880Z,97959.22
2023-02-12T10:05:16.685Z,97963.72
2023-02-12T10:07:45.792Z,97965.34
2023-02-12T10:10:21.546Z,97959.22
2023-02-12T10:13:00.089Z,97961.88
2023-02-12T10:15:53.042Z,97965.34
2023-02-12T10:18:49.163Z,97964.34
2023-02-12T10:21:36.603Z,97971.50
2023-02-12T10:24:15.203Z,97967.00
2023-02-12T10:26:51.351Z,97962.50
2023-02-12T10:29:25.273Z,97969.69
2023-02-12T10:32:25.969Z,97975.00
2023-02-12T10:34:53.978Z,97969.69
2023-02-12T10:37:35.313Z,97969.47
2023-02-12T10:40:20.715Z,97965.97
2023-02-12T10:42:50.080Z,97965.16
2023-02-12T10:45:26.365Z,97965.75
2023-02-12T10:48:06.402Z,97966.56
2023-02-12T10:50:45.470Z,97968.19
2023-02-12T10:53:18.662Z,97964.72
2023-02-12T10:55:48.003Z,97964.50
2023-02-12T10:58:25.129Z,97966.34
2023-02-12T11:01:03.643Z,97968.00
2023-02-12T11:03:38.220Z,97970.69
2023-02-12T11:06:26.867Z,97960.81
2023-02-12T11:09:01.513Z,97962.47
2023-02-12T11:11:37.169Z,97958.13
2023-02-12T11:14:06.446Z,97954.44
2023-02-12T11:16:40.278Z,97944.56
2023-02-12T11:19:25.721Z,97942.72
2023-02-12T11:22:18.695Z,97937.38
2023-02-12T11:24:47.291Z,97947.84
2023-02-12T11:27:19.326Z,97948.66
2023-02-12T11:32:20.751Z,97939.03
2023-02-12T11:35:12.517Z,97942.50
2023-02-12T11:37:53.034Z,97935.53
2023-02-12T11:40:26.401Z,97940.88
2023-02-12T11:42:58.195Z,97935.53
2023-02-12T11:45:36.915Z,97938.22
2023-02-12T11:48:21.740Z,97932.03
2023-02-12T11:50:54.970Z,97932.88
2023-02-12T11:53:34.161Z,97929.38
2023-02-12T11:56:14.348Z,97926.91
2023-02-12T11:58:45.331Z,97932.88
2023-02-12T12:01:34.191Z,97929.38
2023-02-12T12:04:15.880Z,97929.38
2023-02-12T12:06:55.116Z,97928.53
2023-02-12T12:09:40.093Z,97918.91
2023-02-12T12:12:13.741Z,97918.91
2023-02-12T12:15:13.119Z,97919.13
2023-02-12T12:18:15.608Z,97912.97
2023-02-12T12:20:58.167Z,97917.28
2023-02-12T12:23:39.731Z,97906.81
2023-02-12T12:26:16.306Z,97907.63
2023-02-12T12:29:02.208Z,97917.47
2023-02-12T12:31:35.424Z,97911.34
2023-02-12T12:34:26.140Z,97911.34
2023-02-12T12:37:17.188Z,97907.84
2023-02-12T12:40:10.593Z,97901.69
2023-02-12T12:42:57.824Z,97904.56
2023-02-12T12:45:55.023Z,97904.56
2023-02-12T12:48:21.851Z,97902.94
2023-02-12T12:51:24.286Z,97898.44
2023-02-12T12:54:22.632Z,97902.13
2023-02-12T12:57:00.062Z,97904.78
2023-02-12T12:59:41.005Z,97904.78
2023-02-12T13:02:55.130Z,97899.44
2023-02-12T13:05:49.866Z,97897.00
2023-02-12T13:08:39.750Z,97892.47
2023-02-12T13:11:32.438Z,97897.00
2023-02-12T13:14:19.937Z,97895.38
2023-02-12T13:16:59.238Z,97893.69
2023-02-12T13:19:55.900Z,97890.19
2023-02-12T13:22:31.270Z,97895.53
2023-02-12T13:25:00.527Z,97884.69
2023-02-12T13:27:40.654Z,97899.03
2023-02-12T13:30:17.496Z,97900.06
2023-02-12T13:32:50.957Z,97902.72
2023-02-12T13:35:27.352Z,97902.72
2023-02-12T13:37:55.969Z,97897.41
2023-02-12T13:40:32.709Z,97891.22
2023-02-12T13:43:22.803Z,97888.56
2023-02-12T13:46:03.433Z,97885.91
2023-02-12T13:48:46.638Z,97894.13
2023-02-12T13:51:37.814Z,97888.78
2023-02-12T13:54:04.756Z,97880.78
2023-02-12T13:56:45.040Z,97882.63
2023-02-12T13:59:30.483Z,97874.59
2023-02-12T14:02:04.752Z,97887.16
2023-02-12T14:04:55.710Z,97878.31
2023-02-12T14:07:26.849Z,97879.16
2023-02-12T14:09:55.830Z,97876.66
2023-02-12T14:12:24.979Z,97886.34
2023-02-12T14:14:57.260Z,97882.00
2023-02-12T14:17:29.711Z,97875.88
2023-02-12T14:20:40.172Z,97884.69
2023-02-12T14:23:42.177Z,97877.72
2023-02-12T14:26:24.888Z,97879.56
2023-02-12T14:29:06.495Z,97883.06
2023-02-12T14:31:38.559Z,97887.56
2023-02-12T14:34:11.340Z,97878.75
2023-02-12T14:36:42.942Z,97878.75
2023-02-12T14:39:21.026Z,97878.75
2023-02-12T14:41:48.612Z,97877.09
2023-02-12T14:44:21.725Z,97877.94
2023-02-12T14:46:53.895Z,97869.09
2023-02-12T14:49:35.182Z,97871.78
2023-02-12T14:52:06.654Z,97870.94
2023-02-12T14:54:46.435Z,97872.00
2023-02-12T14:57:21.507Z,97870.16
2023-02-12T14:59:51.428Z,97875.47
2023-02-12T15:02:34.996Z,97877.31
2023-02-12T15:05:22.285Z,97881.03
2023-02-12T15:08:18.607Z,97872.00
2023-02-12T15:11:01.747Z,97881.84
2023-02-12T15:13:34.725Z,97873.03
2023-02-12T15:16:27.437Z,97868.72
2023-02-12T15:19:19.691Z,97864.19
2023-02-12T15:21:51.596Z,97861.53
2023-02-12T15:24:29.599Z,97868.72
2023-02-12T15:27:07.566Z,97863.38
2023-02-12T15:29:46.000Z,97864.41
2023-02-12T15:32:36.472Z,97867.91
2023-02-12T15:35:05.608Z,97863.59
2023-02-12T15:37:35.034Z,97875.09
2023-02-12T15:40:09.019Z,97860.91
2023-02-12T15:42:42.949Z,97865.44
2023-02-12T15:45:17.771Z,97852.31
2023-02-12T15:48:05.114Z,97862.75
2023-02-12T15:50:33.295Z,97859.28
2023-02-12T15:53:09.531Z,97861.97
2023-02-12T15:55:42.048Z,97850.47
2023-02-12T15:58:19.750Z,97849.63
2023-02-12T16:00:51.560Z,97857.44
2023-02-12T16:03:26.291Z,97852.09
2023-02-12T16:05:58.268Z,97849.22
2023-02-12T16:08:25.884Z,97856.41
2023-02-12T16:11:13.753Z,97853.53
2023-02-12T16:13:48.660Z,97852.47
2023-02-12T16:16:17.630Z,97847.97
2023-02-12T16:18:48.863Z,97848.78
2023-02-12T16:21:22.620Z,97847.75
2023-02-12T16:23:54.258Z,97854.75
2023-02-12T16:26:26.647Z,97861.69
2023-02-12T16:29:00.500Z,97857.97
2023-02-12T16:31:32.291Z,97856.97
2023-02-12T16:34:01.493Z,97864.75
2023-02-12T16:36:31.851Z,97870.94
2023-02-12T16:39:28.565Z,97859.19
2023-02-12T16:41:57.303Z,97866.16
2023-02-12T16:44:33.036Z,97875.00
2023-02-12T16:47:02.145Z,97872.31
2023-02-12T16:49:28.934Z,97867.84
2023-02-12T16:52:28.590Z,97870.31
2023-02-12T16:54:55.516Z,97875.41
2023-02-12T16:57:22.229Z,97876.25
2023-02-12T16:59:53.799Z,97876.25
2023-02-12T17:02:25.404Z,97870.91
2023-02-12T17:04:56.722Z,97876.84
2023-02-12T17:07:31.347Z,97878.69
2023-02-12T17:10:03.360Z,97867.81
2023-02-12T17:12:30.191Z,97872.31
2023-02-12T17:14:59.416Z,97871.28
2023-02-12T17:17:30.889Z,97875.38
2023-02-12T17:20:02.301Z,97883.16
2023-02-12T17:22:36.564Z,97888.31
2023-02-12T17:25:05.551Z,97886.22
2023-02-12T17:27:36.076Z,97879.03
2023-02-12T17:30:12.991Z,97877.81
2023-02-12T17:32:41.789Z,97881.06
2023-02-12T17:35:09.151Z,97881.88
2023-02-12T17:37:40.402Z,97892.13
2023-02-12T17:40:11.301Z,97885.75
2023-02-12T17:42:40.322Z,97889.22
2023-02-12T17:45:09.794Z,97891.72
2023-02-12T17:47:42.568Z,97891.28
2023-02-12T17:50:15.650Z,97885.72
2023-02-12T17:52:45.304Z,97886.31
2023-02-12T17:55:13.885Z,97890.38
2023-02-12T17:57:45.476Z,97891.22
2023-02-12T18:00:18.743Z,97893.44
2023-02-12T18:02:47.772Z,97895.09
2023-02-12T18:05:20.420Z,97901.00
2023-02-12T18:07:49.476Z,97901.00
2023-02-12T18:10:18.490Z,97898.16
2023-02-12T18:12:50.362Z,97899.78
2023-02-12T18:15:21.226Z,97910.25
2023-02-12T18:17:52.584Z,97904.91
2023-02-12T18:20:19.416Z,97908.41
2023-02-12T18:22:51.148Z,97908.19
2023-02-12T18:25:20.233Z,97905.28
2023-02-12T18:27:52.201Z,97896.44
2023-02-12T18:30:23.743Z,97901.78
2023-02-12T18:32:55.236Z,97895.19
2023-02-12T18:35:26.886Z,97894.38
2023-02-12T18:37:58.258Z,97890.69
2023-02-12T18:40:25.644Z,97890.47
2023-02-12T18:42:57.253Z,97884.91
2023-02-12T18:45:24.582Z,97892.91
2023-02-12T18:47:56.124Z,97885.72
2023-02-12T18:50:22.853Z,97887.56
2023-02-12T18:52:55.373Z,97890.25
2023-02-12T18:55:24.313Z,97889.41
2023-02-12T18:57:55.638Z,97888.41
2023-02-12T19:00:24.949Z,97888.41
2023-02-12T19:02:56.843Z,97882.22
2023-02-12T19:05:26.415Z,97887.56
2023-02-12T19:07:53.436Z,97886.75
2023-02-12T19:10:24.669Z,97889.41
2023-02-12T19:12:53.845Z,97886.97
2023-02-12T19:15:20.581Z,97888.59
2023-02-12T19:17:49.874Z,97886.97
2023-02-12T19:20:21.737Z,97889.63
2023-02-12T19:22:52.900Z,97883.69
2023-02-12T19:25:25.286Z,97887.19
2023-02-12T19:27:56.808Z,97881.03
2023-02-12T19:30:28.364Z,97881.84
2023-02-12T19:32:57.674Z,97884.53
2023-02-12T19:35:24.369Z,97892.53
2023-02-12T19:37:53.624Z,97888.81
2023-02-12T19:40:23.462Z,97890.69
2023-02-12T19:42:54.919Z,97891.50
2023-02-12T19:45:23.903Z,97885.34
2023-02-12T19:47:55.837Z,97894.97
2023-02-12T19:50:24.768Z,97893.38
2023-02-12T19:52:53.976Z,97884.31
2023-02-12T19:55:23.324Z,97888.03
2023-02-12T19:57:52.475Z,97889.88
2023-02-12T20:00:22.010Z,97884.53
2023-02-12T20:02:53.727Z,97880.00
2023-02-12T20:05:20.687Z,97881.84
2023-02-12T20:07:49.890Z,97880.19
2023-02-12T20:10:21.599Z,97887.41
2023-02-12T20:12:50.829Z,97884.75
2023-02-12T20:15:21.365Z,97886.59
2023-02-12T20:17:53.435Z,97884.97
2023-02-12T20:20:25.929Z,97879.63
2023-02-12T20:22:57.521Z,97877.75
2023-02-12T20:25:30.192Z,97881.25
2023-02-12T20:27:59.942Z,97883.91
2023-02-12T20:30:33.684Z,97886.59
2023-02-12T20:33:07.490Z,97889.25
2023-02-12T20:35:37.281Z,97896.22
2023-02-12T20:38:12.542Z,97887.41
2023-02-12T20:40:41.603Z,97894.38
2023-02-12T20:43:13.475Z,97888.22
2023-02-12T20:45:40.165Z,97884.75
2023-02-12T20:48:09.254Z,97883.69
2023-02-12T20:50:40.680Z,97886.59
2023-02-12T20:53:12.662Z,97884.75
2023-02-12T20:55:44.358Z,97886.59
2023-02-12T20:58:15.781Z,97883.09
2023-02-12T21:00:45.268Z,97890.09
2023-02-12T21:03:12.046Z,97885.53
2023-02-12T21:05:38.857Z,97890.09
2023-02-12T21:08:12.359Z,97890.09
2023-02-12T21:10:42.106Z,97890.88
2023-02-12T21:13:08.780Z,97899.72
2023-02-12T21:15:37.873Z,97902.16
2023-02-12T21:18:09.480Z,97904.84
2023-02-12T21:20:36.228Z,97907.50
2023-02-12T21:23:07.412Z,97906.72
2023-02-12T21:25:34.467Z,97897.66
2023-02-12T21:28:08.307Z,97891.50
2023-02-12T21:30:39.903Z,97896.03
2023-02-12T21:33:09.081Z,97899.50
2023-02-12T21:35:38.584Z,97912.06
2023-02-12T21:38:05.307Z,97908.56
2023-02-12T21:40:36.712Z,97905.91
2023-02-12T21:43:10.858Z,97908.78
2023-02-12T21:45:37.606Z,97914.13
2023-02-12T21:48:04.604Z,97911.47
2023-02-12T21:50:31.318Z,97903.66
2023-02-12T21:53:00.601Z,97909.56
2023-02-12T21:55:32.543Z,97907.13
2023-02-12T21:58:04.151Z,97917.81
2023-02-12T22:00:30.916Z,97917.81
2023-02-12T22:02:57.676Z,97912.69
2023-02-12T22:05:26.625Z,97917.25
2023-02-12T22:07:58.184Z,97913.75
2023-02-12T22:10:28.527Z,97915.59
2023-02-12T22:13:02.671Z,97915.59
2023-02-12T22:15:29.404Z,97920.50
2023-02-12T22:18:01.338Z,97921.53
2023-02-12T22:20:32.549Z,97923.16
2023-02-12T22:23:01.477Z,97925.81
2023-02-12T22:25:33.398Z,97922.13
2023-02-12T22:28:02.665Z,97923.38
2023-02-12T22:30:29.798Z,97918.88
2023-02-12T22:33:01.009Z,97916.19
2023-02-12T22:35:35.557Z,97919.09
2023-02-12T22:38:05.338Z,97914.56
2023-02-12T22:40:32.154Z,97917.25
2023-02-12T22:43:01.233Z,97912.91
2023-02-12T22:45:27.941Z,97915.59
2023-02-12T22:47:59.299Z,97910.25
2023-02-12T22:50:28.947Z,97909.41
2023-02-12T22:52:57.983Z,97913.13
2023-02-12T22:55:27.688Z,97918.47
2023-02-12T22:57:54.338Z,97919.53
2023-02-12T23:00:23.294Z,97918.69
2023-02-12T23:02:54.776Z,97915.19
2023-02-12T23:05:23.608Z,97914.38
2023-02-12T23:07:54.812Z,97909.03
2023-02-12T23:10:26.982Z,97911.69
2023-02-12T23:12:56.267Z,97910.91
2023-02-12T23:15:25.172Z,97915.41
2023-02-12T23:17:54.184Z,97908.22
2023-02-12T23:20:25.841Z,97914.59
2023-02-12T23:22:54.807Z,97915.41
2023-02-12T23:25:21.514Z,97913.56
2023-02-12T23:27:48.206Z,97911.13
2023-02-12T23:30:17.410Z,97911.91
2023-02-12T23:32:44.245Z,97907.63
2023-02-12T23:35:10.921Z,97907.63
2023-02-12T23:37:40.104Z,97906.00
2023-02-12T23:40:08.193Z,97906.00
2023-02-12T23:42:40.867Z,97898.78
2023-02-12T23:45:12.682Z,97901.47
2023-02-12T23:47:42.714Z,97896.94
2023-02-12T23:50:09.870Z,97898.00
2023-02-12T23:52:41.114Z,97898.78
2023-02-12T23:55:15.024Z,97893.44
2023-02-12T23:57:50.527Z,97896.94
